aviador You're here:

YFRT Decoded Metar

FORREST in _UNIDENTIFIED
Report Time2018-05-20 19:00:00
UTC Time2018-05-20 19:29:39
Flight Rules unknown UNKNOWN
Wind150° at 05 kt
W.Decomp.*RWY 18: 4.2 kt HW 2.7 kt LCW
RWY 09: 2.7 kt HW 4.2 kt RCW
W.Rank150° ranks 6
Current wind is below 150° avg. (9.8)
VisibilityN/A
Phenomena:N/A
Clouds:N/A
CeilingNone
Temp08°C (ISA -6)
Dew Point08°C (100% RH)
AAT5.7°C
QNH1031 hPa
Density Alt-666 ft
Elevation512 ft
Report Wrong Elevation
Raw Report
YFRT 201900Z AUTO 15005KT //// // ////// 08/08 Q1031=

Extra information for YFRT:More info

Metar Taf Metar & Taf Last 4 Metars F.Rules Stats Wind Profile Meteogram Temp Stats Airport Information Weather charts Add Link Nearby VenuesMetar ALERT Operation Metar Decoded Social comments